sensor_id;sensor_type;location;lat;lon;timestamp;P1;durP1;ratioP1;P2;durP2;ratioP2
7495;SDS011;3789;47.064;15.482;2023-02-01T00:00:30;4.70;;;3.60;;
7495;SDS011;3789;47.064;15.482;2023-02-01T00:02:59;4.33;;;3.80;;
7495;SDS011;3789;47.064;15.482;2023-02-01T00:05:27;5.10;;;3.70;;
7495;SDS011;3789;47.064;15.482;2023-02-01T00:07:54;4.20;;;3.53;;
7495;SDS011;3789;47.064;15.482;2023-02-01T00:10:21;4.37;;;3.50;;
7495;SDS011;3789;47.064;15.482;2023-02-01T00:12:48;4.57;;;3.47;;
7495;SDS011;3789;47.064;15.482;2023-02-01T00:15:16;5.20;;;3.57;;
7495;SDS011;3789;47.064;15.482;2023-02-01T00:17:43;5.37;;;3.70;;
7495;SDS011;3789;47.064;15.482;2023-02-01T00:20:11;5.10;;;2.90;;
7495;SDS011;3789;47.064;15.482;2023-02-01T00:22:38;5.80;;;3.97;;
7495;SDS011;3789;47.064;15.482;2023-02-01T00:25:05;4.63;;;4.17;;
7495;SDS011;3789;47.064;15.482;2023-02-01T00:27:33;6.17;;;3.90;;
7495;SDS011;3789;47.064;15.482;2023-02-01T00:30:00;5.37;;;3.70;;
7495;SDS011;3789;47.064;15.482;2023-02-01T00:32:27;4.67;;;3.47;;
7495;SDS011;3789;47.064;15.482;2023-02-01T00:34:54;5.40;;;3.53;;
7495;SDS011;3789;47.064;15.482;2023-02-01T00:37:22;6.00;;;3.80;;
7495;SDS011;3789;47.064;15.482;2023-02-01T00:39:49;5.03;;;3.63;;
7495;SDS011;3789;47.064;15.482;2023-02-01T00:42:16;5.87;;;4.00;;
7495;SDS011;3789;47.064;15.482;2023-02-01T00:44:43;3.87;;;3.47;;
7495;SDS011;3789;47.064;15.482;2023-02-01T00:47:11;5.77;;;3.40;;
7495;SDS011;3789;47.064;15.482;2023-02-01T00:49:38;5.10;;;3.93;;
7495;SDS011;3789;47.064;15.482;2023-02-01T00:52:05;5.27;;;3.70;;
7495;SDS011;3789;47.064;15.482;2023-02-01T00:54:32;6.37;;;3.87;;
7495;SDS011;3789;47.064;15.482;2023-02-01T00:57:00;3.70;;;3.30;;
7495;SDS011;3789;47.064;15.482;2023-02-01T00:59:27;5.10;;;3.57;;
7495;SDS011;3789;47.064;15.482;2023-02-01T01:01:54;5.07;;;3.80;;
7495;SDS011;3789;47.064;15.482;2023-02-01T01:04:21;4.37;;;3.50;;
7495;SDS011;3789;47.064;15.482;2023-02-01T01:06:48;5.20;;;3.77;;
7495;SDS011;3789;47.064;15.482;2023-02-01T01:09:15;5.23;;;3.27;;
7495;SDS011;3789;47.064;15.482;2023-02-01T01:11:42;4.93;;;4.10;;
7495;SDS011;3789;47.064;15.482;2023-02-01T01:14:10;4.67;;;4.20;;
7495;SDS011;3789;47.064;15.482;2023-02-01T01:16:37;4.67;;;3.73;;
7495;SDS011;3789;47.064;15.482;2023-02-01T01:19:04;5.27;;;4.13;;
7495;SDS011;3789;47.064;15.482;2023-02-01T01:21:33;4.33;;;3.47;;
7495;SDS011;3789;47.064;15.482;2023-02-01T01:24:01;3.40;;;2.93;;
7495;SDS011;3789;47.064;15.482;2023-02-01T01:26:28;3.93;;;3.43;;
7495;SDS011;3789;47.064;15.482;2023-02-01T01:28:57;5.30;;;3.33;;
7495;SDS011;3789;47.064;15.482;2023-02-01T01:31:25;4.13;;;3.47;;
7495;SDS011;3789;47.064;15.482;2023-02-01T01:33:53;4.70;;;3.60;;
7495;SDS011;3789;47.064;15.482;2023-02-01T01:36:22;3.83;;;3.53;;
7495;SDS011;3789;47.064;15.482;2023-02-01T01:38:50;4.93;;;3.70;;
7495;SDS011;3789;47.064;15.482;2023-02-01T01:41:19;4.13;;;3.60;;
7495;SDS011;3789;47.064;15.482;2023-02-01T01:43:51;5.13;;;3.80;;
7495;SDS011;3789;47.064;15.482;2023-02-01T01:46:19;5.57;;;4.57;;
7495;SDS011;3789;47.064;15.482;2023-02-01T01:48:50;4.10;;;3.70;;
7495;SDS011;3789;47.064;15.482;2023-02-01T01:51:23;8.50;;;4.23;;
7495;SDS011;3789;47.064;15.482;2023-02-01T01:53:58;5.83;;;4.00;;
7495;SDS011;3789;47.064;15.482;2023-02-01T01:56:28;6.07;;;4.40;;
7495;SDS011;3789;47.064;15.482;2023-02-01T01:58:57;4.33;;;3.70;;
7495;SDS011;3789;47.064;15.482;2023-02-01T02:01:25;5.33;;;4.03;;
7495;SDS011;3789;47.064;15.482;2023-02-01T02:03:53;4.73;;;4.13;;
7495;SDS011;3789;47.064;15.482;2023-02-01T02:06:30;4.40;;;4.00;;
7495;SDS011;3789;47.064;15.482;2023-02-01T02:09:00;4.13;;;3.73;;
7495;SDS011;3789;47.064;15.482;2023-02-01T02:11:31;5.60;;;4.17;;
7495;SDS011;3789;47.064;15.482;2023-02-01T02:13:59;5.17;;;4.20;;
7495;SDS011;3789;47.064;15.482;2023-02-01T02:56:43;3.90;;;3.50;;
7495;SDS011;3789;47.064;15.482;2023-02-01T02:59:28;4.03;;;3.53;;
7495;SDS011;3789;47.064;15.482;2023-02-01T03:02:15;4.90;;;2.83;;
7495;SDS011;3789;47.064;15.482;2023-02-01T03:08:10;3.20;;;2.90;;
7495;SDS011;3789;47.064;15.482;2023-02-01T03:21:38;3.20;;;3.00;;
7495;SDS011;3789;47.064;15.482;2023-02-01T03:24:34;3.57;;;3.27;;
7495;SDS011;3789;47.064;15.482;2023-02-01T03:32:35;3.40;;;3.10;;
7495;SDS011;3789;47.064;15.482;2023-02-01T03:35:24;3.77;;;3.10;;
7495;SDS011;3789;47.064;15.482;2023-02-01T03:38:04;3.17;;;2.97;;
7495;SDS011;3789;47.064;15.482;2023-02-01T03:40:54;3.03;;;2.67;;
7495;SDS011;3789;47.064;15.482;2023-02-01T03:43:29;3.53;;;2.90;;
7495;SDS011;3789;47.064;15.482;2023-02-01T03:46:05;3.83;;;2.80;;
7495;SDS011;3789;47.064;15.482;2023-02-01T03:48:39;3.07;;;2.43;;
7495;SDS011;3789;47.064;15.482;2023-02-01T03:51:08;4.10;;;2.80;;
7495;SDS011;3789;47.064;15.482;2023-02-01T03:53:37;3.80;;;3.10;;
7495;SDS011;3789;47.064;15.482;2023-02-01T03:56:07;3.77;;;2.80;;
7495;SDS011;3789;47.064;15.482;2023-02-01T03:58:38;6.17;;;3.30;;
7495;SDS011;3789;47.064;15.482;2023-02-01T04:01:06;3.40;;;3.10;;
7495;SDS011;3789;47.064;15.482;2023-02-01T04:03:33;4.07;;;3.30;;
7495;SDS011;3789;47.064;15.482;2023-02-01T04:06:01;3.27;;;2.77;;
7495;SDS011;3789;47.064;15.482;2023-02-01T04:08:28;6.57;;;3.10;;
7495;SDS011;3789;47.064;15.482;2023-02-01T04:10:56;4.17;;;2.93;;
7495;SDS011;3789;47.064;15.482;2023-02-01T04:13:23;3.67;;;3.00;;
7495;SDS011;3789;47.064;15.482;2023-02-01T04:15:50;3.47;;;2.70;;
7495;SDS011;3789;47.064;15.482;2023-02-01T04:18:17;5.47;;;2.87;;
7495;SDS011;3789;47.064;15.482;2023-02-01T04:20:44;3.03;;;2.67;;
7495;SDS011;3789;47.064;15.482;2023-02-01T04:23:12;3.37;;;3.00;;
7495;SDS011;3789;47.064;15.482;2023-02-01T04:25:39;3.50;;;2.47;;
7495;SDS011;3789;47.064;15.482;2023-02-01T04:28:06;3.13;;;2.60;;
7495;SDS011;3789;47.064;15.482;2023-02-01T04:30:33;4.10;;;2.50;;
7495;SDS011;3789;47.064;15.482;2023-02-01T04:33:01;4.00;;;2.87;;
7495;SDS011;3789;47.064;15.482;2023-02-01T04:35:31;4.10;;;2.93;;
7495;SDS011;3789;47.064;15.482;2023-02-01T04:37:59;4.20;;;3.20;;
7495;SDS011;3789;47.064;15.482;2023-02-01T04:40:26;4.67;;;3.30;;
7495;SDS011;3789;47.064;15.482;2023-02-01T04:42:54;3.33;;;2.73;;
7495;SDS011;3789;47.064;15.482;2023-02-01T04:45:21;2.90;;;2.60;;
7495;SDS011;3789;47.064;15.482;2023-02-01T04:47:48;3.53;;;2.70;;
7495;SDS011;3789;47.064;15.482;2023-02-01T04:50:15;2.63;;;2.23;;
7495;SDS011;3789;47.064;15.482;2023-02-01T04:52:42;4.90;;;3.00;;
7495;SDS011;3789;47.064;15.482;2023-02-01T04:55:11;2.70;;;2.40;;
7495;SDS011;3789;47.064;15.482;2023-02-01T04:57:42;4.93;;;2.73;;
7495;SDS011;3789;47.064;15.482;2023-02-01T05:00:10;5.03;;;3.87;;
7495;SDS011;3789;47.064;15.482;2023-02-01T05:02:38;4.80;;;3.77;;
7495;SDS011;3789;47.064;15.482;2023-02-01T05:05:06;6.50;;;4.23;;
7495;SDS011;3789;47.064;15.482;2023-02-01T05:07:50;4.83;;;3.27;;
7495;SDS011;3789;47.064;15.482;2023-02-01T05:10:17;5.30;;;3.47;;
7495;SDS011;3789;47.064;15.482;2023-02-01T05:12:45;3.17;;;2.80;;
7495;SDS011;3789;47.064;15.482;2023-02-01T05:15:31;4.00;;;3.60;;
7495;SDS011;3789;47.064;15.482;2023-02-01T05:17:59;4.20;;;3.73;;
7495;SDS011;3789;47.064;15.482;2023-02-01T05:20:26;3.97;;;3.13;;
7495;SDS011;3789;47.064;15.482;2023-02-01T05:22:53;4.30;;;3.10;;
7495;SDS011;3789;47.064;15.482;2023-02-01T05:25:21;3.77;;;2.90;;
7495;SDS011;3789;47.064;15.482;2023-02-01T05:27:48;3.60;;;3.03;;
7495;SDS011;3789;47.064;15.482;2023-02-01T05:30:15;3.47;;;3.10;;
7495;SDS011;3789;47.064;15.482;2023-02-01T05:32:43;4.50;;;3.10;;
7495;SDS011;3789;47.064;15.482;2023-02-01T05:35:10;5.03;;;3.20;;
7495;SDS011;3789;47.064;15.482;2023-02-01T05:37:37;4.57;;;3.17;;
7495;SDS011;3789;47.064;15.482;2023-02-01T05:40:04;4.17;;;3.03;;
7495;SDS011;3789;47.064;15.482;2023-02-01T05:42:32;4.37;;;3.17;;
7495;SDS011;3789;47.064;15.482;2023-02-01T05:44:59;3.27;;;2.97;;
7495;SDS011;3789;47.064;15.482;2023-02-01T05:47:26;3.40;;;2.80;;
7495;SDS011;3789;47.064;15.482;2023-02-01T05:49:53;3.70;;;3.20;;
7495;SDS011;3789;47.064;15.482;2023-02-01T05:52:21;4.67;;;3.50;;
7495;SDS011;3789;47.064;15.482;2023-02-01T05:54:48;3.53;;;3.10;;
7495;SDS011;3789;47.064;15.482;2023-02-01T05:57:15;3.60;;;3.30;;
7495;SDS011;3789;47.064;15.482;2023-02-01T05:59:42;4.50;;;2.97;;
7495;SDS011;3789;47.064;15.482;2023-02-01T06:02:12;3.70;;;3.17;;
7495;SDS011;3789;47.064;15.482;2023-02-01T06:04:39;3.77;;;3.10;;
7495;SDS011;3789;47.064;15.482;2023-02-01T06:07:24;4.30;;;3.17;;
7495;SDS011;3789;47.064;15.482;2023-02-01T06:09:54;3.30;;;3.00;;
7495;SDS011;3789;47.064;15.482;2023-02-01T06:12:21;3.83;;;3.27;;
7495;SDS011;3789;47.064;15.482;2023-02-01T06:14:48;3.87;;;3.50;;
7495;SDS011;3789;47.064;15.482;2023-02-01T06:17:15;6.17;;;4.13;;
7495;SDS011;3789;47.064;15.482;2023-02-01T06:19:43;5.40;;;3.33;;
7495;SDS011;3789;47.064;15.482;2023-02-01T06:22:11;5.20;;;3.53;;
7495;SDS011;3789;47.064;15.482;2023-02-01T06:24:38;3.97;;;3.33;;
7495;SDS011;3789;47.064;15.482;2023-02-01T06:27:07;3.60;;;3.30;;
7495;SDS011;3789;47.064;15.482;2023-02-01T06:29:36;4.20;;;3.20;;
7495;SDS011;3789;47.064;15.482;2023-02-01T06:32:03;3.70;;;3.30;;
7495;SDS011;3789;47.064;15.482;2023-02-01T06:34:31;4.80;;;3.33;;
7495;SDS011;3789;47.064;15.482;2023-02-01T06:36:58;3.67;;;3.27;;
7495;SDS011;3789;47.064;15.482;2023-02-01T06:39:25;6.07;;;3.50;;
7495;SDS011;3789;47.064;15.482;2023-02-01T06:41:54;4.07;;;3.67;;
7495;SDS011;3789;47.064;15.482;2023-02-01T06:44:21;6.37;;;3.80;;
7495;SDS011;3789;47.064;15.482;2023-02-01T06:46:48;4.40;;;3.20;;
7495;SDS011;3789;47.064;15.482;2023-02-01T06:49:15;5.57;;;3.53;;
7495;SDS011;3789;47.064;15.482;2023-02-01T06:51:42;5.03;;;3.57;;
7495;SDS011;3789;47.064;15.482;2023-02-01T06:54:09;3.63;;;3.03;;
7495;SDS011;3789;47.064;15.482;2023-02-01T06:56:36;4.80;;;3.73;;
7495;SDS011;3789;47.064;15.482;2023-02-01T06:59:04;4.47;;;3.70;;
7495;SDS011;3789;47.064;15.482;2023-02-01T07:01:33;4.17;;;3.63;;
7495;SDS011;3789;47.064;15.482;2023-02-01T07:04:00;5.83;;;3.73;;
7495;SDS011;3789;47.064;15.482;2023-02-01T07:06:27;6.13;;;3.40;;
7495;SDS011;3789;47.064;15.482;2023-02-01T07:08:55;4.00;;;3.57;;
7495;SDS011;3789;47.064;15.482;2023-02-01T07:11:23;8.13;;;4.00;;
7495;SDS011;3789;47.064;15.482;2023-02-01T07:13:50;4.90;;;3.40;;
7495;SDS011;3789;47.064;15.482;2023-02-01T07:16:18;3.50;;;3.20;;
7495;SDS011;3789;47.064;15.482;2023-02-01T07:18:46;4.43;;;2.73;;
7495;SDS011;3789;47.064;15.482;2023-02-01T07:21:14;3.30;;;3.00;;
7495;SDS011;3789;47.064;15.482;2023-02-01T07:23:41;4.77;;;3.10;;
7495;SDS011;3789;47.064;15.482;2023-02-01T07:26:09;3.20;;;2.90;;
7495;SDS011;3789;47.064;15.482;2023-02-01T07:28:39;3.67;;;3.27;;
7495;SDS011;3789;47.064;15.482;2023-02-01T07:31:17;3.50;;;3.07;;
7495;SDS011;3789;47.064;15.482;2023-02-01T07:33:48;4.17;;;3.77;;
7495;SDS011;3789;47.064;15.482;2023-02-01T07:36:18;5.17;;;3.17;;
7495;SDS011;3789;47.064;15.482;2023-02-01T07:38:45;4.10;;;3.50;;
7495;SDS011;3789;47.064;15.482;2023-02-01T07:41:15;5.43;;;3.60;;
7495;SDS011;3789;47.064;15.482;2023-02-01T07:43:44;4.97;;;3.87;;
7495;SDS011;3789;47.064;15.482;2023-02-01T07:46:11;6.00;;;4.23;;
7495;SDS011;3789;47.064;15.482;2023-02-01T07:48:41;15.27;;;7.47;;
7495;SDS011;3789;47.064;15.482;2023-02-01T07:51:09;14.03;;;7.77;;
7495;SDS011;3789;47.064;15.482;2023-02-01T07:53:41;7.30;;;4.47;;
7495;SDS011;3789;47.064;15.482;2023-02-01T07:56:13;5.53;;;3.97;;
7495;SDS011;3789;47.064;15.482;2023-02-01T07:58:46;4.23;;;3.67;;
7495;SDS011;3789;47.064;15.482;2023-02-01T08:01:18;15.80;;;12.40;;
7495;SDS011;3789;47.064;15.482;2023-02-01T08:03:48;12.30;;;8.63;;
7495;SDS011;3789;47.064;15.482;2023-02-01T08:06:23;10.10;;;7.67;;
7495;SDS011;3789;47.064;15.482;2023-02-01T08:08:51;6.53;;;4.80;;
7495;SDS011;3789;47.064;15.482;2023-02-01T08:11:19;4.03;;;3.47;;
7495;SDS011;3789;47.064;15.482;2023-02-01T08:13:47;5.67;;;3.80;;
7495;SDS011;3789;47.064;15.482;2023-02-01T08:16:16;4.53;;;3.90;;
7495;SDS011;3789;47.064;15.482;2023-02-01T08:18:45;5.73;;;4.70;;
7495;SDS011;3789;47.064;15.482;2023-02-01T08:21:13;4.53;;;3.83;;
7495;SDS011;3789;47.064;15.482;2023-02-01T08:23:44;4.20;;;3.70;;
7495;SDS011;3789;47.064;15.482;2023-02-01T08:26:21;6.00;;;3.20;;
7495;SDS011;3789;47.064;15.482;2023-02-01T08:28:54;4.50;;;3.40;;
7495;SDS011;3789;47.064;15.482;2023-02-01T08:31:23;7.67;;;6.83;;
7495;SDS011;3789;47.064;15.482;2023-02-01T08:33:56;5.27;;;4.77;;
7495;SDS011;3789;47.064;15.482;2023-02-01T08:36:26;4.83;;;3.80;;
7495;SDS011;3789;47.064;15.482;2023-02-01T08:38:55;7.40;;;6.13;;
7495;SDS011;3789;47.064;15.482;2023-02-01T08:41:24;6.00;;;5.17;;
7495;SDS011;3789;47.064;15.482;2023-02-01T08:43:52;5.60;;;4.67;;
7495;SDS011;3789;47.064;15.482;2023-02-01T08:46:20;5.17;;;4.60;;
7495;SDS011;3789;47.064;15.482;2023-02-01T08:48:49;7.10;;;5.03;;
7495;SDS011;3789;47.064;15.482;2023-02-01T08:51:18;6.70;;;4.90;;
7495;SDS011;3789;47.064;15.482;2023-02-01T08:53:46;6.07;;;4.70;;
7495;SDS011;3789;47.064;15.482;2023-02-01T08:56:14;5.40;;;4.40;;
7495;SDS011;3789;47.064;15.482;2023-02-01T08:58:43;5.50;;;4.80;;
7495;SDS011;3789;47.064;15.482;2023-02-01T09:01:11;12.05;;;7.50;;
7495;SDS011;3789;47.064;15.482;2023-02-01T09:03:40;8.60;;;5.53;;
7495;SDS011;3789;47.064;15.482;2023-02-01T09:06:09;5.60;;;4.30;;
7495;SDS011;3789;47.064;15.482;2023-02-01T09:08:39;6.27;;;4.50;;
7495;SDS011;3789;47.064;15.482;2023-02-01T09:11:08;6.33;;;4.83;;
7495;SDS011;3789;47.064;15.482;2023-02-01T09:13:39;6.57;;;4.53;;
7495;SDS011;3789;47.064;15.482;2023-02-01T09:16:06;7.20;;;5.00;;
7495;SDS011;3789;47.064;15.482;2023-02-01T09:18:34;4.87;;;4.03;;
7495;SDS011;3789;47.064;15.482;2023-02-01T09:21:06;6.87;;;4.63;;
7495;SDS011;3789;47.064;15.482;2023-02-01T09:23:34;8.40;;;4.63;;
7495;SDS011;3789;47.064;15.482;2023-02-01T09:26:02;6.73;;;4.13;;
7495;SDS011;3789;47.064;15.482;2023-02-01T09:28:31;7.07;;;4.70;;
7495;SDS011;3789;47.064;15.482;2023-02-01T09:30:59;10.33;;;4.80;;
7495;SDS011;3789;47.064;15.482;2023-02-01T09:33:27;6.80;;;4.13;;
7495;SDS011;3789;47.064;15.482;2023-02-01T09:35:56;10.33;;;5.23;;
7495;SDS011;3789;47.064;15.482;2023-02-01T09:38:24;7.97;;;4.67;;
7495;SDS011;3789;47.064;15.482;2023-02-01T09:40:54;6.67;;;5.30;;
7495;SDS011;3789;47.064;15.482;2023-02-01T09:46:46;8.70;;;5.53;;
7495;SDS011;3789;47.064;15.482;2023-02-01T09:49:20;10.90;;;5.63;;
7495;SDS011;3789;47.064;15.482;2023-02-01T09:51:52;14.20;;;6.67;;
7495;SDS011;3789;47.064;15.482;2023-02-01T09:54:25;11.50;;;5.70;;
7495;SDS011;3789;47.064;15.482;2023-02-01T10:00:00;10.83;;;5.90;;
7495;SDS011;3789;47.064;15.482;2023-02-01T10:02:34;16.17;;;6.83;;
7495;SDS011;3789;47.064;15.482;2023-02-01T10:05:11;8.97;;;5.70;;
7495;SDS011;3789;47.064;15.482;2023-02-01T10:10:13;8.73;;;5.00;;
7495;SDS011;3789;47.064;15.482;2023-02-01T10:13:01;12.43;;;6.10;;
7495;SDS011;3789;47.064;15.482;2023-02-01T10:16:09;9.07;;;6.13;;
7495;SDS011;3789;47.064;15.482;2023-02-01T10:26:36;3.47;;;2.73;;
7495;SDS011;3789;47.064;15.482;2023-02-01T10:29:10;3.97;;;2.70;;
7495;SDS011;3789;47.064;15.482;2023-02-01T10:31:48;2.87;;;2.57;;
7495;SDS011;3789;47.064;15.482;2023-02-01T10:36:55;3.70;;;2.30;;
7495;SDS011;3789;47.064;15.482;2023-02-01T10:39:28;6.20;;;2.50;;
7495;SDS011;3789;47.064;15.482;2023-02-01T10:41:55;2.80;;;2.40;;
7495;SDS011;3789;47.064;15.482;2023-02-01T10:44:27;3.23;;;2.83;;
7495;SDS011;3789;47.064;15.482;2023-02-01T10:46:56;4.63;;;2.10;;
7495;SDS011;3789;47.064;15.482;2023-02-01T10:49:29;13.30;;;6.73;;
7495;SDS011;3789;47.064;15.482;2023-02-01T10:52:11;3.90;;;2.20;;
7495;SDS011;3789;47.064;15.482;2023-02-01T10:54:41;3.97;;;2.03;;
7495;SDS011;3789;47.064;15.482;2023-02-01T10:57:22;2.87;;;2.23;;
7495;SDS011;3789;47.064;15.482;2023-02-01T10:59:52;6.83;;;4.10;;
7495;SDS011;3789;47.064;15.482;2023-02-01T11:02:25;3.43;;;2.47;;
7495;SDS011;3789;47.064;15.482;2023-02-01T11:04:59;4.23;;;2.80;;
7495;SDS011;3789;47.064;15.482;2023-02-01T11:07:38;4.77;;;3.10;;
7495;SDS011;3789;47.064;15.482;2023-02-01T11:10:33;4.80;;;2.47;;
7495;SDS011;3789;47.064;15.482;2023-02-01T11:13:02;5.07;;;2.93;;
7495;SDS011;3789;47.064;15.482;2023-02-01T11:15:31;3.20;;;2.50;;
7495;SDS011;3789;47.064;15.482;2023-02-01T11:17:58;5.83;;;3.30;;
7495;SDS011;3789;47.064;15.482;2023-02-01T11:20:43;4.13;;;3.13;;
7495;SDS011;3789;47.064;15.482;2023-02-01T11:23:16;4.23;;;2.83;;
7495;SDS011;3789;47.064;15.482;2023-02-01T11:25:50;5.97;;;3.00;;
7495;SDS011;3789;47.064;15.482;2023-02-01T11:28:23;4.73;;;3.60;;
7495;SDS011;3789;47.064;15.482;2023-02-01T11:30:59;5.60;;;3.10;;
7495;SDS011;3789;47.064;15.482;2023-02-01T11:33:34;3.03;;;1.93;;
7495;SDS011;3789;47.064;15.482;2023-02-01T11:36:12;7.27;;;3.03;;
7495;SDS011;3789;47.064;15.482;2023-02-01T11:38:51;5.70;;;3.13;;
7495;SDS011;3789;47.064;15.482;2023-02-01T11:41:23;4.17;;;3.17;;
7495;SDS011;3789;47.064;15.482;2023-02-01T11:43:59;4.67;;;3.13;;
7495;SDS011;3789;47.064;15.482;2023-02-01T11:46:46;3.87;;;2.70;;
7495;SDS011;3789;47.064;15.482;2023-02-01T11:52:11;3.93;;;3.10;;
7495;SDS011;3789;47.064;15.482;2023-02-01T11:57:42;5.07;;;3.30;;
7495;SDS011;3789;47.064;15.482;2023-02-01T12:00:54;4.57;;;2.83;;
7495;SDS011;3789;47.064;15.482;2023-02-01T12:06:54;3.07;;;2.50;;
7495;SDS011;3789;47.064;15.482;2023-02-01T12:43:01;1.77;;;0.90;;
7495;SDS011;3789;47.064;15.482;2023-02-01T12:45:51;0.90;;;0.90;;
7495;SDS011;3789;47.064;15.482;2023-02-01T12:51:19;0.83;;;0.83;;
7495;SDS011;3789;47.064;15.482;2023-02-01T12:53:54;1.83;;;0.90;;
7495;SDS011;3789;47.064;15.482;2023-02-01T12:56:31;1.00;;;0.90;;
7495;SDS011;3789;47.064;15.482;2023-02-01T12:59:26;0.90;;;0.90;;
7495;SDS011;3789;47.064;15.482;2023-02-01T13:02:13;0.80;;;0.80;;
7495;SDS011;3789;47.064;15.482;2023-02-01T13:07:41;1.10;;;1.00;;
7495;SDS011;3789;47.064;15.482;2023-02-01T13:10:15;1.13;;;1.03;;
7495;SDS011;3789;47.064;15.482;2023-02-01T13:15:58;1.37;;;0.90;;
7495;SDS011;3789;47.064;15.482;2023-02-01T13:18:32;0.80;;;0.80;;
7495;SDS011;3789;47.064;15.482;2023-02-01T13:21:20;1.43;;;0.90;;
7495;SDS011;3789;47.064;15.482;2023-02-01T13:23:52;1.43;;;1.00;;
7495;SDS011;3789;47.064;15.482;2023-02-01T13:26:20;0.97;;;0.93;;
7495;SDS011;3789;47.064;15.482;2023-02-01T13:28:49;0.93;;;0.93;;
7495;SDS011;3789;47.064;15.482;2023-02-01T13:37:10;1.43;;;0.90;;
7495;SDS011;3789;47.064;15.482;2023-02-01T13:42:51;0.90;;;0.90;;
7495;SDS011;3789;47.064;15.482;2023-02-01T13:45:49;0.97;;;0.90;;
7495;SDS011;3789;47.064;15.482;2023-02-01T13:48:28;0.80;;;0.80;;
7495;SDS011;3789;47.064;15.482;2023-02-01T13:51:01;1.23;;;0.93;;
7495;SDS011;3789;47.064;15.482;2023-02-01T13:53:33;0.90;;;0.90;;
7495;SDS011;3789;47.064;15.482;2023-02-01T13:56:07;1.10;;;1.00;;
7495;SDS011;3789;47.064;15.482;2023-02-01T13:58:47;1.87;;;1.20;;
7495;SDS011;3789;47.064;15.482;2023-02-01T14:03:56;1.27;;;1.00;;
7495;SDS011;3789;47.064;15.482;2023-02-01T14:11:45;1.10;;;1.00;;
7495;SDS011;3789;47.064;15.482;2023-02-01T14:19:37;1.87;;;1.47;;
7495;SDS011;3789;47.064;15.482;2023-02-01T14:24:41;3.07;;;2.60;;
7495;SDS011;3789;47.064;15.482;2023-02-01T14:27:18;1.67;;;1.57;;
7495;SDS011;3789;47.064;15.482;2023-02-01T14:29:53;3.23;;;1.97;;
7495;SDS011;3789;47.064;15.482;2023-02-01T14:32:38;7.83;;;4.03;;
7495;SDS011;3789;47.064;15.482;2023-02-01T14:35:16;2.80;;;1.80;;
7495;SDS011;3789;47.064;15.482;2023-02-01T14:37:52;4.30;;;2.03;;
7495;SDS011;3789;47.064;15.482;2023-02-01T14:40:26;4.50;;;3.20;;
7495;SDS011;3789;47.064;15.482;2023-02-01T14:42:54;1.33;;;1.23;;
7495;SDS011;3789;47.064;15.482;2023-02-01T14:50:36;1.03;;;1.03;;
7495;SDS011;3789;47.064;15.482;2023-02-01T15:06:31;1.20;;;1.10;;
7495;SDS011;3789;47.064;15.482;2023-02-01T15:11:54;1.90;;;1.00;;
7495;SDS011;3789;47.064;15.482;2023-02-01T15:14:24;1.17;;;1.03;;
7495;SDS011;3789;47.064;15.482;2023-02-01T15:16:53;1.50;;;1.20;;
7495;SDS011;3789;47.064;15.482;2023-02-01T15:19:22;1.87;;;1.20;;
7495;SDS011;3789;47.064;15.482;2023-02-01T15:21:55;2.00;;;1.20;;
7495;SDS011;3789;47.064;15.482;2023-02-01T15:24:24;1.10;;;1.10;;
7495;SDS011;3789;47.064;15.482;2023-02-01T15:26:58;4.20;;;1.27;;
7495;SDS011;3789;47.064;15.482;2023-02-01T15:29:30;1.23;;;1.00;;
7495;SDS011;3789;47.064;15.482;2023-02-01T15:32:00;1.30;;;1.20;;
7495;SDS011;3789;47.064;15.482;2023-02-01T15:34:49;1.20;;;1.10;;
7495;SDS011;3789;47.064;15.482;2023-02-01T15:37:16;1.23;;;1.13;;
7495;SDS011;3789;47.064;15.482;2023-02-01T15:42:32;1.23;;;1.13;;
7495;SDS011;3789;47.064;15.482;2023-02-01T15:44:59;1.63;;;1.33;;
7495;SDS011;3789;47.064;15.482;2023-02-01T15:47:27;1.20;;;1.10;;
7495;SDS011;3789;47.064;15.482;2023-02-01T15:49:58;2.47;;;1.50;;
7495;SDS011;3789;47.064;15.482;2023-02-01T15:52:33;1.50;;;1.10;;
7495;SDS011;3789;47.064;15.482;2023-02-01T15:55:23;3.17;;;1.30;;
7495;SDS011;3789;47.064;15.482;2023-02-01T15:57:51;1.87;;;1.50;;
7495;SDS011;3789;47.064;15.482;2023-02-01T16:00:30;1.70;;;1.20;;
7495;SDS011;3789;47.064;15.482;2023-02-01T16:06:09;1.67;;;1.30;;
7495;SDS011;3789;47.064;15.482;2023-02-01T16:08:54;2.03;;;1.30;;
7495;SDS011;3789;47.064;15.482;2023-02-01T16:11:33;2.53;;;1.43;;
7495;SDS011;3789;47.064;15.482;2023-02-01T16:14:35;1.37;;;1.27;;
7495;SDS011;3789;47.064;15.482;2023-02-01T16:17:02;1.30;;;1.20;;
7495;SDS011;3789;47.064;15.482;2023-02-01T16:19:30;1.90;;;1.30;;
7495;SDS011;3789;47.064;15.482;2023-02-01T16:21:58;2.67;;;1.40;;
7495;SDS011;3789;47.064;15.482;2023-02-01T16:24:25;1.90;;;1.70;;
7495;SDS011;3789;47.064;15.482;2023-02-01T16:26:52;2.00;;;1.60;;
7495;SDS011;3789;47.064;15.482;2023-02-01T16:29:19;1.60;;;1.33;;
7495;SDS011;3789;47.064;15.482;2023-02-01T16:31:48;3.43;;;2.07;;
7495;SDS011;3789;47.064;15.482;2023-02-01T16:34:16;1.90;;;1.60;;
7495;SDS011;3789;47.064;15.482;2023-02-01T16:36:47;2.90;;;1.67;;
7495;SDS011;3789;47.064;15.482;2023-02-01T16:39:19;2.60;;;1.33;;
7495;SDS011;3789;47.064;15.482;2023-02-01T16:41:47;1.43;;;1.30;;
7495;SDS011;3789;47.064;15.482;2023-02-01T16:44:14;1.60;;;1.33;;
7495;SDS011;3789;47.064;15.482;2023-02-01T16:46:43;1.47;;;1.30;;
7495;SDS011;3789;47.064;15.482;2023-02-01T16:49:16;1.50;;;1.40;;
7495;SDS011;3789;47.064;15.482;2023-02-01T16:51:49;2.60;;;1.70;;
7495;SDS011;3789;47.064;15.482;2023-02-01T16:54:19;2.63;;;1.90;;
7495;SDS011;3789;47.064;15.482;2023-02-01T16:56:47;2.50;;;1.80;;
7495;SDS011;3789;47.064;15.482;2023-02-01T16:59:14;2.27;;;2.00;;
7495;SDS011;3789;47.064;15.482;2023-02-01T17:01:41;1.80;;;1.60;;
7495;SDS011;3789;47.064;15.482;2023-02-01T17:04:09;1.87;;;1.60;;
7495;SDS011;3789;47.064;15.482;2023-02-01T17:06:38;1.60;;;1.50;;
7495;SDS011;3789;47.064;15.482;2023-02-01T17:09:06;5.30;;;3.23;;
7495;SDS011;3789;47.064;15.482;2023-02-01T17:11:33;3.77;;;3.07;;
7495;SDS011;3789;47.064;15.482;2023-02-01T17:14:23;2.20;;;2.00;;
7495;SDS011;3789;47.064;15.482;2023-02-01T17:16:52;2.53;;;1.80;;
7495;SDS011;3789;47.064;15.482;2023-02-01T17:19:22;2.43;;;1.63;;
7495;SDS011;3789;47.064;15.482;2023-02-01T17:21:53;4.80;;;1.90;;
7495;SDS011;3789;47.064;15.482;2023-02-01T17:24:23;3.33;;;2.70;;
7495;SDS011;3789;47.064;15.482;2023-02-01T17:27:01;3.27;;;2.97;;
7495;SDS011;3789;47.064;15.482;2023-02-01T17:29:29;5.40;;;4.57;;
7495;SDS011;3789;47.064;15.482;2023-02-01T17:31:56;7.40;;;5.50;;
7495;SDS011;3789;47.064;15.482;2023-02-01T17:34:26;9.40;;;7.00;;
7495;SDS011;3789;47.064;15.482;2023-02-01T17:36:53;9.83;;;6.20;;
7495;SDS011;3789;47.064;15.482;2023-02-01T17:39:20;6.23;;;5.40;;
7495;SDS011;3789;47.064;15.482;2023-02-01T17:42:08;9.17;;;8.20;;
7495;SDS011;3789;47.064;15.482;2023-02-01T17:44:37;7.83;;;6.40;;
7495;SDS011;3789;47.064;15.482;2023-02-01T17:47:04;5.17;;;4.63;;
7495;SDS011;3789;47.064;15.482;2023-02-01T17:49:31;4.90;;;4.50;;
7495;SDS011;3789;47.064;15.482;2023-02-01T17:52:00;3.87;;;2.83;;
7495;SDS011;3789;47.064;15.482;2023-02-01T17:54:27;3.67;;;2.30;;
7495;SDS011;3789;47.064;15.482;2023-02-01T17:56:55;2.57;;;1.90;;
7495;SDS011;3789;47.064;15.482;2023-02-01T18:02:21;2.17;;;1.60;;
7495;SDS011;3789;47.064;15.482;2023-02-01T18:08:00;2.07;;;1.67;;
7495;SDS011;3789;47.064;15.482;2023-02-01T18:10:28;1.77;;;1.40;;
7495;SDS011;3789;47.064;15.482;2023-02-01T18:12:55;2.17;;;1.70;;
7495;SDS011;3789;47.064;15.482;2023-02-01T18:15:23;3.13;;;2.03;;
7495;SDS011;3789;47.064;15.482;2023-02-01T18:17:51;2.27;;;1.80;;
7495;SDS011;3789;47.064;15.482;2023-02-01T18:20:19;1.80;;;1.60;;
7495;SDS011;3789;47.064;15.482;2023-02-01T18:22:49;3.50;;;1.80;;
7495;SDS011;3789;47.064;15.482;2023-02-01T18:25:22;3.57;;;1.60;;
7495;SDS011;3789;47.064;15.482;2023-02-01T18:27:50;2.30;;;1.80;;
7495;SDS011;3789;47.064;15.482;2023-02-01T18:30:20;2.33;;;2.13;;
7495;SDS011;3789;47.064;15.482;2023-02-01T18:32:48;2.30;;;2.10;;